Time;durP1;ratioP1;P1;durP2;ratioP2;P2;SDS_P1;SDS_P2;PMS_P1;PMS_P2;Temp;Humidity;BMP_temperature;BMP_pressure;BME280_temperature;BME280_humidity;BME280_pressure;Samples;Min_cycle;Max_cycle;Signal;HPM_P1;HPM_P2
2023/02/21 02:14:26;;;;;;;8.00;2.83;;;;;;;0.44;100.00;95881.00;5028571;28;20667;-72
2023/02/21 02:17:28;;;;;;;3.92;2.20;;;;;;;0.45;100.00;95881.84;5028868;28;20044;-72
2023/02/21 02:20:19;;;;;;;4.97;2.42;;;;;;;0.39;100.00;95883.41;5028432;28;20037;-72
2023/02/21 02:22:44;;;;;;;5.57;2.30;;;;;;;0.40;100.00;95881.63;5027520;28;20037;-72
2023/02/21 02:25:24;;;;;;;5.88;2.30;;;;;;;0.28;100.00;95876.22;5028500;28;20043;-72
2023/02/21 02:28:22;;;;;;;3.85;2.22;;;;;;;0.26;100.00;95878.19;5030045;28;20413;-72
2023/02/21 02:31:19;;;;;;;4.25;2.28;;;;;;;0.28;100.00;95871.81;5027157;28;20449;-72
2023/02/21 02:34:35;;;;;;;4.20;2.15;;;;;;;0.27;100.00;95864.25;5025482;28;20044;-71
2023/02/21 02:37:22;;;;;;;4.68;2.38;;;;;;;0.17;100.00;95875.78;4968948;28;20047;-71
2023/02/21 02:40:27;;;;;;;5.00;2.42;;;;;;;0.07;100.00;95865.00;4969029;28;20085;-72
2023/02/21 02:43:13;;;;;;;8.63;2.38;;;;;;;0.02;100.00;95872.53;4992523;28;20053;-72
2023/02/21 02:45:56;;;;;;;5.30;2.25;;;;;;;0.08;100.00;95864.00;5024619;28;20513;-72
2023/02/21 02:48:45;;;;;;;4.78;2.30;;;;;;;-0.03;100.00;95860.19;5023574;28;20048;-72
2023/02/21 02:51:13;;;;;;;7.25;2.38;;;;;;;0.05;100.00;95855.84;5022363;28;20397;-72
2023/02/21 02:53:40;;;;;;;6.38;2.50;;;;;;;-0.05;100.00;95861.38;5029902;28;20087;-72
2023/02/21 02:56:09;;;;;;;5.05;2.20;;;;;;;0.00;100.00;95859.00;5027693;28;20439;-72
2023/02/21 02:58:40;;;;;;;4.47;2.30;;;;;;;-0.01;100.00;95857.41;5026842;28;20523;-72
2023/02/21 03:01:19;;;;;;;4.45;2.47;;;;;;;0.04;100.00;95855.03;5027511;28;20095;-71
2023/02/21 03:03:47;;;;;;;3.30;2.13;;;;;;;-0.03;100.00;95851.63;5024373;28;20089;-72
2023/02/21 03:06:30;;;;;;;3.70;2.00;;;;;;;0.01;100.00;95850.25;5023106;28;20033;-72
2023/02/21 03:09:13;;;;;;;4.22;2.40;;;;;;;0.01;100.00;95858.00;5026686;28;20096;-72
2023/02/21 03:11:51;;;;;;;4.85;2.17;;;;;;;0.00;100.00;95853.84;5030098;28;20630;-71
2023/02/21 03:14:20;;;;;;;9.50;2.80;;;;;;;0.08;100.00;95851.06;5027085;28;20494;-71
2023/02/21 03:16:56;;;;;;;6.25;2.65;;;;;;;0.07;100.00;95854.66;5029576;28;20037;-71
2023/02/21 03:19:27;;;;;;;4.18;2.30;;;;;;;0.07;100.00;95854.66;5029292;28;20091;-72
2023/02/21 03:22:00;;;;;;;8.80;2.90;;;;;;;0.04;100.00;95854.22;5023836;28;20504;-71
2023/02/21 03:24:28;;;;;;;7.18;2.55;;;;;;;0.06;100.00;95860.81;5029487;28;20574;-71
2023/02/21 03:26:59;;;;;;;4.18;2.10;;;;;;;0.03;100.00;95858.63;5030287;28;20046;-73
2023/02/21 03:29:26;;;;;;;7.20;2.53;;;;;;;0.13;100.00;95861.63;5026430;28;20449;-71
2023/02/21 03:34:41;;;;;;;4.68;2.40;;;;;;;0.08;100.00;95861.41;5026044;28;20042;-72
2023/02/21 03:37:10;;;;;;;6.03;2.30;;;;;;;0.16;100.00;95866.41;5029252;28;20038;-72
2023/02/21 03:39:36;;;;;;;5.18;2.30;;;;;;;0.16;100.00;95869.00;5029195;28;20547;-72
2023/02/21 03:42:02;;;;;;;6.07;2.40;;;;;;;0.21;100.00;95870.22;5026293;28;20054;-72
2023/02/21 03:44:27;;;;;;;9.05;2.58;;;;;;;0.12;100.00;95862.63;5029314;28;20037;-72
2023/02/21 03:46:53;;;;;;;5.50;2.30;;;;;;;0.08;100.00;95856.22;5028923;28;20528;-72
2023/02/21 03:49:19;;;;;;;4.68;2.58;;;;;;;0.08;100.00;95861.41;5025881;28;20037;-72
2023/02/21 03:51:44;;;;;;;5.55;2.33;;;;;;;0.12;100.00;95860.03;5023144;28;20045;-72
2023/02/21 03:54:10;;;;;;;4.63;2.05;;;;;;;0.09;100.00;95862.22;5029849;28;20064;-72
2023/02/21 03:56:35;;;;;;;6.57;2.40;;;;;;;0.05;100.00;95866.97;5028781;28;20087;-72
2023/02/21 03:59:02;;;;;;;4.35;2.10;;;;;;;0.14;100.00;95865.81;5024981;28;20045;-72
2023/02/21 04:01:27;;;;;;;4.28;2.10;;;;;;;0.11;100.00;95860.22;5028010;28;20171;-73
2023/02/21 04:03:53;;;;;;;4.40;2.30;;;;;;;0.10;100.00;95863.81;5025461;28;20052;-73
2023/02/21 04:06:18;;;;;;;6.03;2.33;;;;;;;0.05;100.00;95866.97;5028835;28;20503;-73
2023/02/21 04:08:44;;;;;;;7.05;2.67;;;;;;;0.05;100.00;95854.03;5027337;28;20041;-73
2023/02/21 04:11:09;;;;;;;8.07;2.30;;;;;;;0.05;100.00;95861.81;5028426;28;20037;-73
2023/02/21 04:13:35;;;;;;;4.13;2.17;;;;;;;0.07;100.00;95865.00;5027294;28;20512;-72
2023/02/21 04:16:00;;;;;;;4.10;2.38;;;;;;;0.03;100.00;95863.78;5028847;28;20033;-72
2023/02/21 04:18:26;;;;;;;9.52;2.80;;;;;;;-0.02;100.00;95860.97;5027161;28;20037;-72
2023/02/21 04:20:51;;;;;;;5.88;2.80;;;;;;;-0.02;100.00;95861.78;5028151;28;20111;-72
2023/02/21 04:23:18;;;;;;;4.68;2.38;;;;;;;0.12;100.00;95862.63;5027598;28;20038;-71
2023/02/21 04:25:44;;;;;;;6.68;2.20;;;;;;;0.13;100.00;95864.22;5028066;28;20033;-71
2023/02/21 04:28:10;;;;;;;4.35;2.35;;;;;;;0.05;100.00;95856.63;5028503;28;20072;-71
2023/02/21 04:30:36;;;;;;;5.90;2.55;;;;;;;0.23;100.00;95860.44;5023787;28;20033;-72
2023/02/21 04:33:02;;;;;;;4.22;2.30;;;;;;;0.16;100.00;95858.66;5023475;28;20524;-72
2023/02/21 04:35:28;;;;;;;6.28;2.60;;;;;;;0.10;100.00;95862.03;5027637;28;20116;-71
2023/02/21 04:37:53;;;;;;;6.57;2.20;;;;;;;0.06;100.00;95858.22;5027191;28;20497;-72
2023/02/21 04:40:19;;;;;;;9.25;2.20;;;;;;;0.03;100.00;95852.63;5027081;28;20049;-73
2023/02/21 04:42:44;;;;;;;6.43;2.47;;;;;;;0.01;100.00;95850.25;5023424;28;20058;-72
2023/02/21 04:45:10;;;;;;;5.10;2.13;;;;;;;-0.01;100.00;95852.22;5026274;28;20037;-72
2023/02/21 04:47:36;;;;;;;5.72;2.30;;;;;;;-0.05;100.00;95851.03;5031479;28;20052;-72
2023/02/21 04:50:02;;;;;;;5.07;2.47;;;;;;;-0.02;100.00;95854.00;5033186;28;20045;-72
2023/02/21 04:52:27;;;;;;;5.20;2.30;;;;;;;-0.08;100.00;95854.00;5029371;28;20091;-72
2023/02/21 04:54:53;;;;;;;7.63;2.80;;;;;;;-0.02;100.00;95845.47;5032635;28;20041;-72
2023/02/21 04:57:18;;;;;;;6.55;2.80;;;;;;;0.31;100.00;95852.50;5029754;28;20127;-72
2023/02/21 04:59:44;;;;;;;8.90;2.40;;;;;;;1.03;100.00;95842.41;5024510;28;20037;-72
2023/02/21 05:02:10;;;;;;;4.57;2.70;;;;;;;1.47;100.00;95840.94;5021022;28;20127;-72
2023/02/21 05:04:36;;;;;;;4.22;2.30;;;;;;;1.46;100.00;95836.75;5028539;28;20044;-71
2023/02/21 05:07:02;;;;;;;7.68;2.50;;;;;;;1.44;100.00;95833.56;5031303;28;20053;-71
2023/02/21 05:09:28;;;;;;;5.68;2.40;;;;;;;1.16;100.00;95834.59;5030837;28;20042;-71
2023/02/21 05:11:54;;;;;;;5.10;2.40;;;;;;;1.11;100.00;95837.03;5025499;28;20064;-71
2023/02/21 05:14:19;;;;;;;6.57;2.33;;;;;;;1.00;100.00;95832.44;5033054;28;20037;-71
2023/02/21 05:16:45;;;;;;;5.60;2.35;;;;;;;1.34;100.00;95828.03;5031196;28;20065;-71
2023/02/21 05:19:10;;;;;;;4.63;2.42;;;;;;;1.25;100.00;95821.44;5031195;28;20033;-71
2023/02/21 05:21:37;;;;;;;4.18;2.17;;;;;;;1.56;100.00;95828.56;5025708;28;20045;-72
2023/02/21 05:24:04;;;;;;;5.82;2.10;;;;;;;1.81;100.00;95820.06;5030080;28;20555;-71
2023/02/21 05:26:35;;;;;;;5.10;2.60;;;;;;;2.02;100.00;95819.00;5031363;28;20044;-71
2023/02/21 05:29:01;;;;;;;7.15;2.28;;;;;;;2.32;100.00;95813.25;5029627;28;20562;-71
2023/02/21 05:31:27;;;;;;;7.03;2.20;;;;;;;2.42;100.00;95816.97;5030043;28;20046;-72
2023/02/21 05:33:53;;;;;;;3.28;2.03;;;;;;;2.49;100.00;95814.31;5030234;28;20080;-71
2023/02/21 05:36:19;;;;;;;8.07;2.40;;;;;;;2.59;100.00;95819.84;5031031;28;20048;-71
2023/02/21 05:38:50;;;;;;;5.10;2.25;;;;;;;2.57;100.00;95816.69;5030275;28;20041;-71
2023/02/21 05:41:16;;;;;;;4.63;2.00;;;;;;;2.63;100.00;95809.84;5018238;28;20044;-72
2023/02/21 05:43:44;;;;;;;4.22;2.13;;;;;;;2.65;100.00;95822.63;5030261;28;20046;-72
2023/02/21 05:46:25;;;;;;;4.65;2.20;;;;;;;2.63;100.00;95815.03;5031889;28;20038;-72
2023/02/21 05:48:52;;;;;;;5.18;2.00;;;;;;;2.68;100.00;95811.81;5030143;28;20034;-72
2023/02/21 05:51:18;;;;;;;8.00;2.10;;;;;;;2.66;100.00;95821.59;5028099;28;20042;-72
2023/02/21 05:53:44;;;;;;;5.70;2.10;;;;;;;2.71;100.00;95814.75;5031105;28;20053;-72
2023/02/21 05:56:10;;;;;;;6.07;2.13;;;;;;;2.65;100.00;95820.03;5031423;28;20095;-72
2023/02/21 05:58:35;;;;;;;4.20;2.15;;;;;;;2.57;100.00;95806.28;5028953;28;20037;-72
2023/02/21 06:01:01;;;;;;;5.43;1.95;;;;;;;2.55;100.00;95808.28;5028622;28;20502;-72
2023/02/21 06:03:26;;;;;;;7.47;1.95;;;;;;;2.62;100.00;95812.66;5023572;28;20045;-71
2023/02/21 06:05:52;;;;;;;5.57;2.10;;;;;;;2.76;100.00;95814.16;5031772;28;20037;-71
2023/02/21 06:08:17;;;;;;;4.85;2.20;;;;;;;2.73;100.00;95819.75;5029645;28;20049;-71
2023/02/21 06:10:43;;;;;;;6.30;2.30;;;;;;;2.59;100.00;95814.66;5029668;28;20041;-72
2023/02/21 06:13:08;;;;;;;5.72;1.88;;;;;;;2.64;100.00;95811.41;5030090;28;20068;-71
2023/02/21 06:15:34;;;;;;;6.97;2.00;;;;;;;2.59;100.00;95814.66;5031806;28;20116;-71
2023/02/21 06:17:59;;;;;;;6.18;2.13;;;;;;;2.60;100.00;95816.25;5029503;28;20041;-72
2023/02/21 06:20:25;;;;;;;2.83;1.75;;;;;;;2.58;100.00;95818.25;5024565;28;20065;-71
2023/02/21 06:22:51;;;;;;;4.68;2.08;;;;;;;2.58;100.00;95818.25;5026013;28;20033;-72
2023/02/21 06:25:17;;;;;;;5.90;2.10;;;;;;;2.71;100.00;95819.16;5030341;28;20042;-71
2023/02/21 06:27:42;;;;;;;7.72;2.38;;;;;;;2.65;100.00;95818.22;5030580;28;20056;-72
2023/02/21 06:30:09;;;;;;;6.47;2.15;;;;;;;2.66;100.00;95816.41;5024634;28;20041;-71
2023/02/21 06:32:34;;;;;;;5.03;2.20;;;;;;;2.75;100.00;95812.53;5028469;28;20052;-72
2023/02/21 06:35:00;;;;;;;4.18;2.20;;;;;;;2.80;100.00;95815.28;5027896;28;20161;-72
2023/02/21 06:37:26;;;;;;;4.00;2.00;;;;;;;2.78;100.00;95818.09;5031562;28;20069;-72
2023/02/21 06:39:51;;;;;;;6.22;2.13;;;;;;;2.84;100.00;95826.84;5029674;28;20038;-72
2023/02/21 06:42:17;;;;;;;5.43;2.00;;;;;;;2.75;100.00;95817.75;5028042;28;20091;-71
2023/02/21 06:44:47;;;;;;;8.20;1.98;;;;;;;2.78;100.00;95827.72;5027944;28;20171;-72
2023/02/21 06:47:14;;;;;;;7.63;2.13;;;;;;;2.80;100.00;95835.28;5025084;28;20045;-72
2023/02/21 06:49:39;;;;;;;9.23;2.42;;;;;;;2.80;100.00;95837.91;5024963;28;20045;-71
2023/02/21 06:52:05;;;;;;;2.95;1.90;;;;;;;2.87;100.00;95826.44;5029341;28;20053;-72
2023/02/21 06:54:31;;;;;;;5.13;2.15;;;;;;;2.94;100.00;95841.97;5023437;28;20084;-71
2023/02/21 06:56:58;;;;;;;6.03;2.05;;;;;;;2.93;100.00;95851.59;5026495;28;20045;-72
2023/02/21 06:59:24;;;;;;;5.65;2.15;;;;;;;3.04;100.00;95846.72;5027062;28;20493;-73
2023/02/21 07:01:49;;;;;;;6.45;2.60;;;;;;;2.99;100.00;95854.34;5031491;28;20088;-72
2023/02/21 07:04:15;;;;;;;3.63;2.10;;;;;;;2.80;100.00;95854.28;5024780;28;20045;-74
2023/02/21 07:06:40;;;;;;;5.90;2.20;;;;;;;2.72;100.00;95859.75;5042913;28;20038;-74
2023/02/21 07:09:06;;;;;;;7.63;2.20;;;;;;;2.66;100.00;95855.38;5026493;28;20133;-75
2023/02/21 07:11:34;;;;;;;5.60;2.30;;;;;;;2.64;100.00;95852.22;5023773;28;20053;-74
2023/02/21 07:14:00;;;;;;;7.22;2.20;;;;;;;2.73;100.00;95850.94;5024691;28;20037;-73
2023/02/21 07:16:25;;;;;;;4.15;2.20;;;;;;;2.81;100.00;95863.69;5027403;28;20033;-73
2023/02/21 07:18:51;;;;;;;8.35;2.33;;;;;;;2.84;100.00;95863.25;5027595;28;20044;-72
2023/02/21 07:21:19;;;;;;;14.02;3.00;;;;;;;2.80;100.00;95867.28;5027142;28;20034;-74
2023/02/21 07:23:45;;;;;;;4.65;2.20;;;;;;;3.24;100.00;95862.94;5028944;28;20045;-74
2023/02/21 07:26:12;;;;;;;5.15;2.05;;;;;;;3.49;100.00;95864.69;5026662;28;20038;-75
2023/02/21 07:28:38;;;;;;;5.93;2.40;;;;;;;3.45;100.00;95868.75;5025677;28;20050;-76
2023/02/21 07:31:04;;;;;;;6.65;2.50;;;;;;;3.60;100.00;95866.59;5027468;28;20099;-75
2023/02/21 07:33:30;;;;;;;6.90;2.45;;;;;;;3.58;100.00;95873.81;5023000;28;20042;-73
2023/02/21 07:35:55;;;;;;;5.00;2.40;;;;;;;3.73;100.00;95867.47;5024531;28;20493;-73
2023/02/21 07:38:23;;;;;;;11.10;2.28;;;;;;;3.84;100.00;95861.53;5024906;28;20044;-70
2023/02/21 07:40:49;;;;;;;6.65;2.25;;;;;;;4.33;100.00;95859.72;5015345;28;20072;-70
2023/02/21 07:43:15;;;;;;;6.15;2.15;;;;;;;4.60;100.00;95859.38;5025258;28;20033;-70
2023/02/21 07:45:40;;;;;;;7.13;2.20;;;;;;;4.55;100.00;95861.84;5026136;28;20505;-73
2023/02/21 07:48:06;;;;;;;6.38;1.85;;;;;;;4.41;100.00;95860.44;5027913;28;20068;-72
2023/02/21 07:50:31;;;;;;;11.30;2.58;;;;;;;4.27;100.00;95865.84;5028768;28;20041;-72
2023/02/21 07:52:58;;;;;;;5.30;2.10;;;;;;;4.28;100.00;95874.44;5025656;28;20071;-72
2023/02/21 07:55:24;;;;;;;8.43;2.28;;;;;;;4.47;100.00;95870.00;5024461;28;20041;-72
2023/02/21 07:57:50;;;;;;;6.43;2.20;;;;;;;4.37;100.00;95869.72;5029546;28;20497;-72
2023/02/21 08:00:16;;;;;;;3.08;1.90;;;;;;;4.66;100.00;95868.91;5028672;28;20092;-72
2023/02/21 08:02:49;;;;;;;5.15;2.20;;;;;;;4.80;100.00;95873.94;5026858;28;20033;-72
2023/02/21 08:05:17;;;;;;;6.03;2.27;;;;;;;4.69;100.00;95873.66;5021139;28;20064;-72
2023/02/21 08:07:43;;;;;;;4.22;1.92;;;;;;;4.98;100.00;95881.66;5028283;28;20041;-72
2023/02/21 08:10:09;;;;;;;3.92;1.95;;;;;;;4.98;100.00;95881.66;5027632;28;20087;-72
2023/02/21 08:12:34;;;;;;;5.00;2.25;;;;;;;4.98;100.00;95881.66;5025900;28;20037;-72
2023/02/21 08:15:00;;;;;;;3.63;2.05;;;;;;;5.45;100.00;95877.53;5028487;28;20044;-72
2023/02/21 08:17:25;;;;;;;4.72;2.05;;;;;;;5.66;100.00;95871.72;5028775;28;20042;-72
2023/02/21 08:19:51;;;;;;;9.35;2.05;;;;;;;5.91;100.00;95868.06;5027323;28;20064;-72
2023/02/21 08:22:17;;;;;;;4.20;2.25;;;;;;;6.01;100.00;95877.94;5024974;28;20112;-72
2023/02/21 08:24:42;;;;;;;5.18;2.30;;;;;;;6.18;100.00;95872.81;5029288;28;20041;-72
2023/02/21 08:27:08;;;;;;;3.78;2.10;;;;;;;6.39;100.00;95874.78;5028094;28;20497;-72
2023/02/21 08:29:34;;;;;;;5.72;2.45;;;;;;;6.48;100.00;95877.81;5027649;28;20420;-72
2023/02/21 08:31:59;;;;;;;4.78;2.50;;;;;;;6.56;100.00;95879.25;5026500;28;20128;-72
2023/02/21 08:34:28;;;;;;;5.55;2.22;;;;;;;6.72;100.00;95873.25;5024022;28;20045;-72
2023/02/21 08:36:54;;;;;;;5.97;2.50;;;;;;;6.62;100.00;95867.84;5028635;28;20067;-72
2023/02/21 08:39:19;;;;;;;5.57;2.33;;;;;;;6.80;100.00;95874.69;5030287;28;20034;-72
2023/02/21 08:41:50;;;;;;;7.88;2.33;;;;;;;6.89;100.00;95872.47;5020229;28;20037;-72
2023/02/21 08:44:16;;;;;;;6.00;2.20;;;;;;;6.98;99.07;95870.25;5029431;28;20460;-72
2023/02/21 08:46:43;;;;;;;7.63;2.00;;;;;;;7.09;97.18;95875.41;5026358;28;20042;-72
2023/02/21 08:49:09;;;;;;;8.90;2.30;;;;;;;7.41;92.74;95880.09;5030545;28;20041;-72
2023/02/21 08:51:35;;;;;;;6.82;2.33;;;;;;;7.60;91.20;95877.19;5029289;28;20046;-72
2023/02/21 08:54:02;;;;;;;6.10;2.10;;;;;;;7.73;89.66;95876.88;5029022;28;20033;-72
2023/02/21 08:56:30;;;;;;;4.97;2.20;;;;;;;7.83;90.15;95885.91;5023623;28;20052;-72
2023/02/21 08:58:55;;;;;;;3.42;2.10;;;;;;;7.98;87.83;95870.38;5029305;28;20037;-71
2023/02/21 09:01:22;;;;;;;7.53;2.17;;;;;;;8.09;86.99;95881.78;5028604;28;20573;-72
2023/02/21 09:03:48;;;;;;;4.65;2.03;;;;;;;8.18;86.94;95876.91;5022832;28;20045;-72
2023/02/21 09:06:17;;;;;;;12.77;2.10;;;;;;;8.26;86.57;95881.69;5028548;28;20041;-71
2023/02/21 09:08:43;;;;;;;3.97;1.80;;;;;;;8.27;87.71;95875.44;5030682;28;20069;-71
2023/02/21 09:11:08;;;;;;;7.93;2.05;;;;;;;8.57;83.15;95879.44;5030620;28;20664;-72
2023/02/21 09:13:34;;;;;;;5.15;1.90;;;;;;;8.67;82.42;95869.84;5023226;28;20408;-72
2023/02/21 09:16:01;;;;;;;4.60;1.70;;;;;;;8.89;79.31;95870.81;5029956;28;20485;-71
2023/02/21 09:18:27;;;;;;;3.92;1.73;;;;;;;9.13;76.64;95861.56;5029870;28;20041;-72
2023/02/21 09:20:56;;;;;;;6.80;2.00;;;;;;;9.17;78.99;95873.16;5023569;28;20072;-71
2023/02/21 09:23:28;;;;;;;3.08;1.50;;;;;;;9.28;78.37;95873.22;5029651;28;20520;-72
2023/02/21 09:25:54;;;;;;;4.80;1.90;;;;;;;9.56;76.13;95864.22;5027777;28;20100;-71
2023/02/21 09:28:20;;;;;;;6.22;1.70;;;;;;;9.66;72.87;95874.00;5028238;28;20448;-72
2023/02/21 09:30:46;;;;;;;4.63;1.63;;;;;;;9.71;72.16;95876.66;5025519;28;20041;-72
2023/02/21 09:33:13;;;;;;;4.15;1.77;;;;;;;9.68;71.40;95866.66;5026185;28;20042;-72
2023/02/21 09:35:39;;;;;;;3.42;1.77;;;;;;;9.89;73.53;95875.44;5034587;28;20042;-70
2023/02/21 09:38:06;;;;;;;5.07;1.88;;;;;;;9.99;69.69;95866.81;5036209;28;20052;-73
2023/02/21 09:40:37;;;;;;;3.97;1.65;;;;;;;10.01;69.41;95870.78;5036252;28;20409;-73
2023/02/21 09:43:08;;;;;;;4.10;1.55;;;;;;;10.16;66.24;95872.69;5032500;28;20048;-71
2023/02/21 09:45:36;;;;;;;7.15;2.00;;;;;;;10.16;67.54;95866.63;5040503;28;20064;-71
2023/02/21 09:48:08;;;;;;;2.15;1.60;;;;;;;10.31;65.22;95863.25;5036262;28;20052;-71
2023/02/21 09:50:43;;;;;;;3.63;1.45;;;;;;;10.41;66.21;95868.56;5034596;28;20048;-72
2023/02/21 09:53:13;;;;;;;7.90;1.95;;;;;;;10.51;62.48;95865.97;5038210;28;20535;-71
2023/02/21 09:55:39;;;;;;;2.88;1.77;;;;;;;10.56;61.66;95867.84;5031570;28;20076;-71
2023/02/21 09:58:14;;;;;;;4.18;1.90;;;;;;;10.76;59.53;95861.81;5038347;28;20056;-73
2023/02/21 10:00:41;;;;;;;3.85;1.70;;;;;;;10.95;59.42;95856.03;5032596;28;20037;-72
2023/02/21 10:03:33;;;;;;;4.60;1.70;;;;;;;11.12;58.62;95851.31;5030914;28;20067;-71
2023/02/21 10:06:11;;;;;;;4.75;1.60;;;;;;;11.46;58.50;95856.00;5032541;28;20049;-72
2023/02/21 10:08:55;;;;;;;1.80;1.27;;;;;;;11.78;57.08;95853.03;5032693;28;20037;-72
2023/02/21 10:11:52;;;;;;;4.25;1.88;;;;;;;12.01;56.63;95855.38;5042758;28;20059;-73
2023/02/21 10:14:26;;;;;;;4.97;2.00;;;;;;;13.54;53.86;95844.88;5051208;28;20048;-72
2023/02/21 10:17:05;;;;;;;3.65;1.73;;;;;;;14.62;46.53;95838.31;5057071;28;20030;-74
2023/02/21 10:19:35;;;;;;;3.95;1.60;;;;;;;15.13;44.59;95841.28;5055939;28;20025;-72
2023/02/21 10:22:11;;;;;;;4.43;2.05;;;;;;;15.27;43.61;95836.03;5058189;28;20063;-71
2023/02/21 10:24:37;;;;;;;5.60;1.83;;;;;;;15.69;42.56;95837.66;5054939;28;20082;-71
2023/02/21 10:27:11;;;;;;;2.83;1.55;;;;;;;16.56;40.71;95842.34;5057954;28;20057;-72
2023/02/21 10:29:51;;;;;;;5.13;1.85;;;;;;;17.03;38.76;95845.56;5056409;28;20056;-72
2023/02/21 10:32:17;;;;;;;4.15;1.73;;;;;;;17.03;40.36;95845.56;5048457;28;20037;-72
2023/02/21 10:34:45;;;;;;;5.60;1.50;;;;;;;17.54;38.26;95842.72;5054020;28;20075;-70
2023/02/21 10:37:48;;;;;;;2.95;1.60;;;;;;;16.82;38.21;95850.53;5038427;28;20088;-74
2023/02/21 10:40:35;;;;;;;3.30;1.45;;;;;;;18.09;36.13;95847.69;5026610;28;20037;-71
2023/02/21 10:43:00;;;;;;;3.78;1.60;;;;;;;17.66;37.53;95845.63;5027540;28;20038;-71
2023/02/21 10:45:35;;;;;;;3.38;1.50;;;;;;;17.93;38.01;95849.19;5020802;28;20046;-71
2023/02/21 10:48:07;;;;;;;3.88;1.40;;;;;;;18.15;36.22;95845.66;5024531;28;20048;-72
2023/02/21 10:51:03;;;;;;;4.95;1.30;;;;;;;18.84;36.05;95839.63;5024648;28;20121;-72
2023/02/21 10:53:37;;;;;;;4.05;1.80;;;;;;;18.57;36.37;95837.28;5025985;28;20034;-72
2023/02/21 10:56:17;;;;;;;4.13;1.45;;;;;;;18.33;36.21;95830.50;5029584;28;20112;-72
2023/02/21 10:58:56;;;;;;;3.38;1.60;;;;;;;19.52;34.19;95836.44;5029289;28;20045;-72
2023/02/21 11:01:25;;;;;;;7.25;1.95;;;;;;;19.46;32.57;95827.00;5026931;28;20033;-72
2023/02/21 11:03:55;;;;;;;6.35;1.73;;;;;;;19.20;34.88;95830.53;5024255;28;20137;-72
2023/02/21 11:06:29;;;;;;;5.10;1.80;;;;;;;19.60;34.42;95826.03;5031100;28;20044;-72
2023/02/21 11:08:54;;;;;;;2.92;1.67;;;;;;;19.31;34.67;95819.50;5029093;28;20042;-72
2023/02/21 11:11:40;;;;;;;2.30;1.77;;;;;;;19.45;34.54;95820.13;5030180;28;20064;-72
2023/02/21 11:14:27;;;;;;;2.95;1.48;;;;;;;18.50;34.99;95817.22;5030119;28;20520;-72
2023/02/21 11:17:18;;;;;;;4.13;1.70;;;;;;;18.66;36.02;95811.41;5030232;28;20041;-72
2023/02/21 11:19:47;;;;;;;2.47;1.40;;;;;;;20.01;32.88;95813.94;5028108;28;20556;-72
2023/02/21 11:22:14;;;;;;;3.70;1.70;;;;;;;20.34;33.22;95806.06;5023026;28;20046;-74
2023/02/21 11:24:59;;;;;;;3.90;1.55;;;;;;;20.19;33.22;95809.31;5031920;28;20034;-74
2023/02/21 11:27:27;;;;;;;2.72;1.80;;;;;;;21.27;31.45;95797.88;5024461;28;20125;-74
2023/02/21 11:29:53;;;;;;;2.35;1.40;;;;;;;22.12;29.46;95789.50;5027856;28;20042;-75
2023/02/21 11:32:27;;;;;;;3.70;1.60;;;;;;;22.63;28.99;95784.50;5030568;28;20045;-75
2023/02/21 11:35:02;;;;;;;2.58;1.45;;;;;;;20.80;30.43;95784.81;5029305;28;20052;-73
2023/02/21 11:37:28;;;;;;;3.40;1.67;;;;;;;20.45;31.83;95779.72;5030819;28;20417;-76
2023/02/21 11:39:54;;;;;;;5.00;1.60;;;;;;;21.86;30.17;95774.56;5029264;28;20049;-73
2023/02/21 11:42:38;;;;;;;9.75;1.70;;;;;;;21.73;29.51;95770.31;5028314;28;20072;-73
2023/02/21 11:45:12;;;;;;;3.35;1.65;;;;;;;21.05;30.25;95768.84;5029954;28;20095;-72
2023/02/21 11:47:45;;;;;;;6.50;1.50;;;;;;;21.73;29.54;95759.59;5030333;28;20042;-76
2023/02/21 11:50:22;;;;;;;2.78;1.45;;;;;;;21.67;29.32;95760.94;5023310;28;20065;-75
2023/02/21 11:52:58;;;;;;;2.80;1.50;;;;;;;21.41;28.73;95754.75;5023569;28;20044;-75
2023/02/21 11:55:24;;;;;;;3.10;1.60;;;;;;;20.49;29.65;95751.22;5024622;28;20034;-74
2023/02/21 11:58:29;;;;;;;2.38;1.30;;;;;;;22.89;27.94;95743.03;5031004;28;20041;-76
2023/02/21 12:01:17;;;;;;;1.83;1.40;;;;;;;23.62;26.93;95741.03;4995059;28;20100;-74
2023/02/21 12:04:14;;;;;;;1.75;1.40;;;;;;;21.88;29.90;95740.19;5025421;28;20085;-74
2023/02/21 12:06:56;;;;;;;3.95;1.65;;;;;;;23.44;26.86;95734.47;5031203;28;20524;-73
2023/02/21 12:09:49;;;;;;;4.68;1.40;;;;;;;23.43;26.93;95732.91;5026325;28;20059;-73
2023/02/21 12:12:24;;;;;;;4.93;1.83;;;;;;;22.07;29.21;95730.78;5026567;28;20041;-73
2023/02/21 12:14:49;;;;;;;5.00;1.50;;;;;;;22.01;29.84;95726.75;5030752;28;20681;-73
2023/02/21 12:17:52;;;;;;;2.47;1.40;;;;;;;22.40;27.74;95721.78;5031448;28;20117;-72
2023/02/21 12:20:33;;;;;;;2.40;1.52;;;;;;;22.17;28.99;95716.13;5026807;28;20369;-73
2023/02/21 12:23:15;;;;;;;2.85;1.50;;;;;;;23.07;26.50;95711.28;5023875;28;20037;-74
2023/02/21 12:25:58;;;;;;;2.28;1.45;;;;;;;22.81;26.77;95711.78;5029709;28;20142;-73
2023/02/21 12:28:43;;;;;;;2.72;1.50;;;;;;;21.91;28.73;95702.00;5030245;28;20041;-73
2023/02/21 12:31:15;;;;;;;4.85;1.50;;;;;;;21.70;28.87;95698.69;5025393;28;20106;-72
2023/02/21 12:33:53;;;;;;;4.05;1.60;;;;;;;24.22;27.24;95697.06;5041068;28;20052;-73
2023/02/21 12:36:45;;;;;;;3.90;1.40;;;;;;;24.58;25.22;95689.69;5022136;28;20041;-74
2023/02/21 12:39:22;;;;;;;3.60;1.42;;;;;;;24.31;24.74;95689.56;5022642;28;20038;-73
2023/02/21 12:42:09;;;;;;;1.98;1.40;;;;;;;24.99;24.95;95690.06;5026244;28;20504;-73
2023/02/21 12:44:39;;;;;;;3.67;1.60;;;;;;;22.15;27.83;95685.09;5026883;28;20042;-74
2023/02/21 12:47:18;;;;;;;2.88;1.38;;;;;;;24.68;25.33;95675.72;5030985;28;20053;-73
2023/02/21 12:50:03;;;;;;;4.28;1.60;;;;;;;23.16;26.32;95676.28;5030215;28;20048;-72
2023/02/21 12:52:57;;;;;;;4.43;1.52;;;;;;;23.39;27.12;95667.59;5024316;28;20520;-73
2023/02/21 12:55:26;;;;;;;5.60;1.85;;;;;;;23.95;25.72;95666.53;5027499;28;20045;-73
2023/02/21 12:58:08;;;;;;;3.58;1.48;;;;;;;25.61;24.10;95664.91;5027040;28;20080;-73
2023/02/21 13:00:49;;;;;;;3.03;1.75;;;;;;;25.54;24.50;95664.81;5044738;28;20038;-72
2023/02/21 13:03:33;;;;;;;3.92;1.70;;;;;;;25.44;24.41;95651.97;5028518;28;20052;-73
2023/02/21 13:06:10;;;;;;;2.38;1.60;;;;;;;26.48;23.43;95655.25;5030691;28;20037;-72
2023/02/21 13:08:53;;;;;;;3.40;1.40;;;;;;;23.87;26.10;95654.88;5032788;28;20065;-74
2023/02/21 13:11:35;;;;;;;3.72;1.70;;;;;;;24.09;25.33;95644.56;5036977;28;20103;-72
2023/02/21 13:14:01;;;;;;;5.05;1.70;;;;;;;23.11;27.33;95641.63;5036174;28;20085;-74
2023/02/21 13:16:27;;;;;;;2.78;1.65;;;;;;;25.70;23.95;95629.63;5039739;28;20060;-73
2023/02/21 13:19:00;;;;;;;3.45;1.48;;;;;;;25.60;23.89;95636.41;5036336;28;20072;-74
2023/02/21 13:21:54;;;;;;;2.67;1.60;;;;;;;23.78;25.70;95630.09;5032565;28;20037;-73
2023/02/21 13:24:38;;;;;;;3.05;1.60;;;;;;;25.06;24.16;95625.59;5032212;28;20101;-73
2023/02/21 13:27:07;;;;;;;;;;;;;;;23.70;26.03;95624.56;5036993;28;20045;-73
2023/02/21 13:29:35;;;;;;;3.95;1.55;;;;;;;22.83;27.25;95623.69;5033770;28;20448;-73
2023/02/21 13:32:20;;;;;;;4.63;1.70;;;;;;;23.94;26.20;95622.00;5033711;28;20536;-73
2023/02/21 13:35:06;;;;;;;2.90;1.58;;;;;;;21.05;29.49;95613.69;5034092;28;20413;-73
2023/02/21 13:37:34;;;;;;;3.70;1.52;;;;;;;21.34;29.17;95609.22;5034261;28;20041;-74
2023/02/21 13:40:06;;;;;;;4.47;1.70;;;;;;;20.93;29.86;95604.53;5033481;28;20072;-73
2023/02/21 13:42:37;;;;;;;3.70;1.80;;;;;;;21.05;30.45;95603.75;5031690;28;20042;-73
2023/02/21 13:45:12;;;;;;;4.57;1.60;;;;;;;20.66;30.86;95607.78;5033474;28;20056;-73
2023/02/21 13:47:52;;;;;;;6.20;1.60;;;;;;;18.07;35.15;95598.75;5032315;28;20063;-73
2023/02/21 13:50:59;;;;;;;5.57;1.73;;;;;;;18.13;36.33;95603.63;5025621;28;20344;-73
2023/02/21 13:53:34;;;;;;;3.70;1.70;;;;;;;17.81;37.33;95602.97;5026658;28;20107;-73
2023/02/21 13:55:59;;;;;;;2.67;1.52;;;;;;;16.00;40.53;95587.59;5030261;28;20037;-74
2023/02/21 13:58:32;;;;;;;2.75;1.63;;;;;;;15.88;41.96;95593.44;5031396;28;20029;-73
2023/02/21 14:01:21;;;;;;;8.10;1.77;;;;;;;16.00;41.43;95592.91;5027572;28;20055;-72
2023/02/21 14:03:48;;;;;;;3.13;1.65;;;;;;;15.94;42.28;95580.84;5022242;28;20042;-72
2023/02/21 14:06:21;;;;;;;4.13;1.70;;;;;;;15.79;42.32;95581.19;5028756;28;20112;-72
2023/02/21 14:08:48;;;;;;;3.35;1.70;;;;;;;15.35;42.98;95584.22;5029683;28;20699;-72
2023/02/21 14:11:22;;;;;;;4.00;1.50;;;;;;;15.31;42.71;95583.25;5028831;28;20045;-72